sensor_id;sensor_type;location;lat;lon;timestamp;P1;durP1;ratioP1;P2;durP2;ratioP2
4903;SDS011;2467;48.142;11.616;2023-06-22T00:00:21;5.43;;;4.93;;
4903;SDS011;2467;48.142;11.616;2023-06-22T00:00:54;4.88;;;4.40;;
4903;SDS011;2467;48.142;11.616;2023-06-22T00:01:26;7.22;;;4.93;;
4903;SDS011;2467;48.142;11.616;2023-06-22T00:01:59;7.32;;;3.70;;
4903;SDS011;2467;48.142;11.616;2023-06-22T00:02:31;5.55;;;4.93;;
4903;SDS011;2467;48.142;11.616;2023-06-22T00:03:03;6.28;;;4.72;;
4903;SDS011;2467;48.142;11.616;2023-06-22T00:03:36;5.60;;;4.75;;
4903;SDS011;2467;48.142;11.616;2023-06-22T00:04:08;4.30;;;3.90;;
4903;SDS011;2467;48.142;11.616;2023-06-22T00:04:41;5.55;;;3.95;;
4903;SDS011;2467;48.142;11.616;2023-06-22T00:05:13;6.10;;;4.53;;
4903;SDS011;2467;48.142;11.616;2023-06-22T00:05:45;5.82;;;4.63;;
4903;SDS011;2467;48.142;11.616;2023-06-22T00:06:17;8.68;;;4.50;;
4903;SDS011;2467;48.142;11.616;2023-06-22T00:06:57;5.45;;;4.28;;
4903;SDS011;2467;48.142;11.616;2023-06-22T00:07:30;6.45;;;4.80;;
4903;SDS011;2467;48.142;11.616;2023-06-22T00:08:03;4.47;;;4.03;;
4903;SDS011;2467;48.142;11.616;2023-06-22T00:08:36;9.60;;;5.72;;
4903;SDS011;2467;48.142;11.616;2023-06-22T00:09:08;6.45;;;5.18;;
4903;SDS011;2467;48.142;11.616;2023-06-22T00:09:41;8.93;;;5.53;;
4903;SDS011;2467;48.142;11.616;2023-06-22T00:10:14;4.88;;;4.38;;
4903;SDS011;2467;48.142;11.616;2023-06-22T00:10:46;7.63;;;4.68;;
4903;SDS011;2467;48.142;11.616;2023-06-22T00:11:18;6.10;;;4.88;;
4903;SDS011;2467;48.142;11.616;2023-06-22T00:11:51;6.75;;;4.47;;
4903;SDS011;2467;48.142;11.616;2023-06-22T00:12:23;5.93;;;4.22;;
4903;SDS011;2467;48.142;11.616;2023-06-22T00:13:01;7.82;;;4.47;;
4903;SDS011;2467;48.142;11.616;2023-06-22T00:13:34;5.60;;;4.00;;
4903;SDS011;2467;48.142;11.616;2023-06-22T00:14:06;4.72;;;4.25;;
4903;SDS011;2467;48.142;11.616;2023-06-22T00:14:38;6.63;;;4.22;;
4903;SDS011;2467;48.142;11.616;2023-06-22T00:15:11;5.32;;;4.30;;
4903;SDS011;2467;48.142;11.616;2023-06-22T00:15:43;6.72;;;4.47;;
4903;SDS011;2467;48.142;11.616;2023-06-22T00:16:15;5.55;;;5.05;;
4903;SDS011;2467;48.142;11.616;2023-06-22T00:16:48;8.55;;;5.07;;
4903;SDS011;2467;48.142;11.616;2023-06-22T00:17:20;5.53;;;4.50;;
4903;SDS011;2467;48.142;11.616;2023-06-22T00:17:52;7.75;;;5.00;;
4903;SDS011;2467;48.142;11.616;2023-06-22T00:18:25;6.95;;;4.18;;
4903;SDS011;2467;48.142;11.616;2023-06-22T00:18:59;7.57;;;4.28;;
4903;SDS011;2467;48.142;11.616;2023-06-22T00:19:32;8.10;;;5.15;;
4903;SDS011;2467;48.142;11.616;2023-06-22T00:20:07;6.50;;;4.63;;
4903;SDS011;2467;48.142;11.616;2023-06-22T00:20:41;8.15;;;4.90;;
4903;SDS011;2467;48.142;11.616;2023-06-22T00:21:13;4.85;;;4.43;;
4903;SDS011;2467;48.142;11.616;2023-06-22T00:21:46;10.32;;;4.90;;
4903;SDS011;2467;48.142;11.616;2023-06-22T00:22:18;5.40;;;4.90;;
4903;SDS011;2467;48.142;11.616;2023-06-22T00:23:00;5.75;;;4.63;;
4903;SDS011;2467;48.142;11.616;2023-06-22T00:23:33;5.32;;;4.82;;
4903;SDS011;2467;48.142;11.616;2023-06-22T00:24:05;8.60;;;4.90;;
4903;SDS011;2467;48.142;11.616;2023-06-22T00:24:38;6.50;;;4.70;;
4903;SDS011;2467;48.142;11.616;2023-06-22T00:25:11;7.82;;;5.07;;
4903;SDS011;2467;48.142;11.616;2023-06-22T00:25:43;5.47;;;4.90;;
4903;SDS011;2467;48.142;11.616;2023-06-22T00:26:16;7.32;;;4.78;;
4903;SDS011;2467;48.142;11.616;2023-06-22T00:26:48;5.55;;;4.40;;
4903;SDS011;2467;48.142;11.616;2023-06-22T00:27:20;4.95;;;4.50;;
4903;SDS011;2467;48.142;11.616;2023-06-22T00:27:53;5.35;;;4.63;;
4903;SDS011;2467;48.142;11.616;2023-06-22T00:28:25;4.97;;;4.45;;
4903;SDS011;2467;48.142;11.616;2023-06-22T00:28:57;6.45;;;4.30;;
4903;SDS011;2467;48.142;11.616;2023-06-22T00:29:28;7.72;;;5.55;;
4903;SDS011;2467;48.142;11.616;2023-06-22T00:30:02;5.60;;;4.55;;
4903;SDS011;2467;48.142;11.616;2023-06-22T00:30:34;4.93;;;4.05;;
4903;SDS011;2467;48.142;11.616;2023-06-22T00:31:06;5.82;;;4.30;;
4903;SDS011;2467;48.142;11.616;2023-06-22T00:31:39;5.95;;;5.03;;
4903;SDS011;2467;48.142;11.616;2023-06-22T00:32:12;6.63;;;5.00;;
4903;SDS011;2467;48.142;11.616;2023-06-22T00:32:44;6.50;;;5.90;;
4903;SDS011;2467;48.142;11.616;2023-06-22T00:33:18;5.57;;;5.15;;
4903;SDS011;2467;48.142;11.616;2023-06-22T00:33:50;5.95;;;4.47;;
4903;SDS011;2467;48.142;11.616;2023-06-22T00:34:22;4.00;;;3.70;;
4903;SDS011;2467;48.142;11.616;2023-06-22T00:34:55;5.20;;;4.68;;
4903;SDS011;2467;48.142;11.616;2023-06-22T00:35:27;8.75;;;4.75;;
4903;SDS011;2467;48.142;11.616;2023-06-22T00:36:00;7.25;;;4.78;;
4903;SDS011;2467;48.142;11.616;2023-06-22T00:36:34;9.18;;;4.75;;
4903;SDS011;2467;48.142;11.616;2023-06-22T00:37:06;6.78;;;5.55;;
4903;SDS011;2467;48.142;11.616;2023-06-22T00:37:38;6.97;;;4.85;;
4903;SDS011;2467;48.142;11.616;2023-06-22T00:38:14;6.03;;;4.72;;
4903;SDS011;2467;48.142;11.616;2023-06-22T00:38:46;6.80;;;5.03;;
4903;SDS011;2467;48.142;11.616;2023-06-22T00:39:18;7.40;;;4.63;;
4903;SDS011;2467;48.142;11.616;2023-06-22T00:39:51;6.13;;;4.57;;
4903;SDS011;2467;48.142;11.616;2023-06-22T00:40:23;7.85;;;4.90;;
4903;SDS011;2467;48.142;11.616;2023-06-22T00:40:55;6.30;;;4.95;;
4903;SDS011;2467;48.142;11.616;2023-06-22T00:41:28;5.40;;;4.90;;
4903;SDS011;2467;48.142;11.616;2023-06-22T00:42:00;4.80;;;4.40;;
4903;SDS011;2467;48.142;11.616;2023-06-22T00:42:32;12.02;;;4.85;;
4903;SDS011;2467;48.142;11.616;2023-06-22T00:43:05;9.07;;;5.57;;
4903;SDS011;2467;48.142;11.616;2023-06-22T00:43:37;5.00;;;4.50;;
4903;SDS011;2467;48.142;11.616;2023-06-22T00:44:09;8.02;;;4.28;;
4903;SDS011;2467;48.142;11.616;2023-06-22T00:44:42;5.18;;;4.68;;
4903;SDS011;2467;48.142;11.616;2023-06-22T00:45:15;6.40;;;4.20;;
4903;SDS011;2467;48.142;11.616;2023-06-22T00:45:47;4.82;;;4.32;;
4903;SDS011;2467;48.142;11.616;2023-06-22T00:46:20;5.68;;;4.80;;
4903;SDS011;2467;48.142;11.616;2023-06-22T00:46:52;6.05;;;4.82;;
4903;SDS011;2467;48.142;11.616;2023-06-22T00:47:25;5.90;;;4.65;;
4903;SDS011;2467;48.142;11.616;2023-06-22T00:47:59;5.35;;;4.80;;
4903;SDS011;2467;48.142;11.616;2023-06-22T00:48:32;4.82;;;4.43;;
4903;SDS011;2467;48.142;11.616;2023-06-22T00:49:04;4.70;;;4.25;;
4903;SDS011;2467;48.142;11.616;2023-06-22T00:49:37;4.85;;;4.35;;
4903;SDS011;2467;48.142;11.616;2023-06-22T00:50:10;5.68;;;4.00;;
4903;SDS011;2467;48.142;11.616;2023-06-22T00:50:49;4.95;;;4.40;;
4903;SDS011;2467;48.142;11.616;2023-06-22T00:51:24;4.82;;;4.43;;
4903;SDS011;2467;48.142;11.616;2023-06-22T00:51:57;7.75;;;4.60;;
4903;SDS011;2467;48.142;11.616;2023-06-22T00:52:29;5.85;;;5.22;;
4903;SDS011;2467;48.142;11.616;2023-06-22T00:53:05;4.35;;;3.95;;
4903;SDS011;2467;48.142;11.616;2023-06-22T00:53:42;9.02;;;4.90;;
4903;SDS011;2467;48.142;11.616;2023-06-22T00:54:14;10.00;;;4.88;;
4903;SDS011;2467;48.142;11.616;2023-06-22T00:54:46;7.88;;;4.38;;
4903;SDS011;2467;48.142;11.616;2023-06-22T00:55:20;5.63;;;5.10;;
4903;SDS011;2467;48.142;11.616;2023-06-22T00:55:54;9.10;;;5.00;;
4903;SDS011;2467;48.142;11.616;2023-06-22T00:56:26;7.10;;;4.70;;
4903;SDS011;2467;48.142;11.616;2023-06-22T00:57:01;7.55;;;4.88;;
4903;SDS011;2467;48.142;11.616;2023-06-22T00:57:35;5.95;;;4.05;;
4903;SDS011;2467;48.142;11.616;2023-06-22T00:58:08;5.05;;;4.65;;
4903;SDS011;2467;48.142;11.616;2023-06-22T00:58:42;6.93;;;5.15;;
4903;SDS011;2467;48.142;11.616;2023-06-22T00:59:15;5.93;;;4.38;;
4903;SDS011;2467;48.142;11.616;2023-06-22T00:59:48;6.45;;;4.45;;
4903;SDS011;2467;48.142;11.616;2023-06-22T01:00:20;7.18;;;5.00;;
4903;SDS011;2467;48.142;11.616;2023-06-22T01:00:55;6.25;;;4.00;;
4903;SDS011;2467;48.142;11.616;2023-06-22T01:01:28;8.13;;;5.53;;
4903;SDS011;2467;48.142;11.616;2023-06-22T01:02:01;5.50;;;4.70;;
4903;SDS011;2467;48.142;11.616;2023-06-22T01:02:34;6.00;;;4.40;;
4903;SDS011;2467;48.142;11.616;2023-06-22T01:03:08;8.60;;;4.95;;
4903;SDS011;2467;48.142;11.616;2023-06-22T01:03:42;6.13;;;4.57;;
4903;SDS011;2467;48.142;11.616;2023-06-22T01:04:15;7.45;;;4.50;;
4903;SDS011;2467;48.142;11.616;2023-06-22T01:04:47;6.82;;;4.60;;
4903;SDS011;2467;48.142;11.616;2023-06-22T01:05:20;5.25;;;4.75;;
4903;SDS011;2467;48.142;11.616;2023-06-22T01:05:53;6.63;;;5.05;;
4903;SDS011;2467;48.142;11.616;2023-06-22T01:06:45;6.18;;;3.95;;
4903;SDS011;2467;48.142;11.616;2023-06-22T01:07:25;6.03;;;5.20;;
4903;SDS011;2467;48.142;11.616;2023-06-22T01:08:06;5.72;;;4.47;;
4903;SDS011;2467;48.142;11.616;2023-06-22T01:08:48;6.45;;;4.53;;
4903;SDS011;2467;48.142;11.616;2023-06-22T01:09:29;9.13;;;5.88;;
4903;SDS011;2467;48.142;11.616;2023-06-22T01:10:07;4.80;;;4.30;;
4903;SDS011;2467;48.142;11.616;2023-06-22T01:10:46;8.45;;;5.47;;
4903;SDS011;2467;48.142;11.616;2023-06-22T01:11:23;7.30;;;4.28;;
4903;SDS011;2467;48.142;11.616;2023-06-22T01:12:04;6.80;;;4.80;;
4903;SDS011;2467;48.142;11.616;2023-06-22T01:12:40;7.60;;;4.40;;
4903;SDS011;2467;48.142;11.616;2023-06-22T01:13:18;6.95;;;5.20;;
4903;SDS011;2467;48.142;11.616;2023-06-22T01:13:57;6.07;;;4.03;;
4903;SDS011;2467;48.142;11.616;2023-06-22T01:14:35;5.65;;;5.00;;
4903;SDS011;2467;48.142;11.616;2023-06-22T01:15:14;5.50;;;4.10;;
4903;SDS011;2467;48.142;11.616;2023-06-22T01:15:51;7.95;;;5.53;;
4903;SDS011;2467;48.142;11.616;2023-06-22T01:16:29;6.78;;;5.28;;
4903;SDS011;2467;48.142;11.616;2023-06-22T01:17:03;5.70;;;4.53;;
4903;SDS011;2467;48.142;11.616;2023-06-22T01:17:40;4.47;;;4.07;;
4903;SDS011;2467;48.142;11.616;2023-06-22T01:18:13;7.75;;;4.97;;
4903;SDS011;2467;48.142;11.616;2023-06-22T01:18:49;6.63;;;4.80;;
4903;SDS011;2467;48.142;11.616;2023-06-22T01:19:29;9.10;;;5.20;;
4903;SDS011;2467;48.142;11.616;2023-06-22T01:20:10;5.38;;;4.88;;
4903;SDS011;2467;48.142;11.616;2023-06-22T01:20:44;7.35;;;4.25;;
4903;SDS011;2467;48.142;11.616;2023-06-22T01:21:17;4.93;;;4.43;;
4903;SDS011;2467;48.142;11.616;2023-06-22T01:21:54;7.60;;;5.05;;
4903;SDS011;2467;48.142;11.616;2023-06-22T01:22:29;8.85;;;4.80;;
4903;SDS011;2467;48.142;11.616;2023-06-22T01:23:07;6.05;;;4.40;;
4903;SDS011;2467;48.142;11.616;2023-06-22T01:24:00;6.15;;;4.75;;
4903;SDS011;2467;48.142;11.616;2023-06-22T01:24:45;5.25;;;4.25;;
4903;SDS011;2467;48.142;11.616;2023-06-22T01:25:28;5.88;;;5.10;;
4903;SDS011;2467;48.142;11.616;2023-06-22T01:26:08;4.88;;;4.10;;
4903;SDS011;2467;48.142;11.616;2023-06-22T01:26:52;5.90;;;4.88;;
4903;SDS011;2467;48.142;11.616;2023-06-22T01:27:33;5.75;;;5.03;;
4903;SDS011;2467;48.142;11.616;2023-06-22T01:29:17;5.00;;;4.07;;
4903;SDS011;2467;48.142;11.616;2023-06-22T01:29:52;5.50;;;4.18;;
4903;SDS011;2467;48.142;11.616;2023-06-22T01:30:32;5.25;;;4.75;;
4903;SDS011;2467;48.142;11.616;2023-06-22T01:31:06;7.80;;;5.55;;
4903;SDS011;2467;48.142;11.616;2023-06-22T01:31:40;6.63;;;4.80;;
4903;SDS011;2467;48.142;11.616;2023-06-22T01:32:14;8.00;;;5.55;;
4903;SDS011;2467;48.142;11.616;2023-06-22T01:32:48;9.07;;;4.95;;
4903;SDS011;2467;48.142;11.616;2023-06-22T01:33:22;8.68;;;4.95;;
4903;SDS011;2467;48.142;11.616;2023-06-22T01:33:54;5.25;;;4.25;;
4903;SDS011;2467;48.142;11.616;2023-06-22T01:34:30;8.65;;;5.60;;
4903;SDS011;2467;48.142;11.616;2023-06-22T01:35:03;4.90;;;4.40;;
4903;SDS011;2467;48.142;11.616;2023-06-22T01:35:37;6.40;;;5.20;;
4903;SDS011;2467;48.142;11.616;2023-06-22T01:36:11;6.88;;;4.85;;
4903;SDS011;2467;48.142;11.616;2023-06-22T01:36:43;5.72;;;4.65;;
4903;SDS011;2467;48.142;11.616;2023-06-22T01:37:16;5.38;;;4.88;;
4903;SDS011;2467;48.142;11.616;2023-06-22T01:37:49;9.23;;;4.82;;
4903;SDS011;2467;48.142;11.616;2023-06-22T01:38:22;5.55;;;4.30;;
4903;SDS011;2467;48.142;11.616;2023-06-22T01:38:54;5.05;;;4.55;;
4903;SDS011;2467;48.142;11.616;2023-06-22T01:39:29;5.65;;;4.88;;
4903;SDS011;2467;48.142;11.616;2023-06-22T01:40:01;7.75;;;4.63;;
4903;SDS011;2467;48.142;11.616;2023-06-22T01:40:35;5.05;;;4.60;;
4903;SDS011;2467;48.142;11.616;2023-06-22T01:41:09;5.40;;;4.38;;
4903;SDS011;2467;48.142;11.616;2023-06-22T01:41:42;6.18;;;4.60;;
4903;SDS011;2467;48.142;11.616;2023-06-22T01:42:14;5.65;;;4.70;;
4903;SDS011;2467;48.142;11.616;2023-06-22T01:42:48;5.50;;;4.95;;
4903;SDS011;2467;48.142;11.616;2023-06-22T01:43:21;5.05;;;4.50;;
4903;SDS011;2467;48.142;11.616;2023-06-22T01:43:55;6.00;;;4.60;;
4903;SDS011;2467;48.142;11.616;2023-06-22T01:44:28;5.60;;;4.10;;
4903;SDS011;2467;48.142;11.616;2023-06-22T01:45:01;7.22;;;4.53;;
4903;SDS011;2467;48.142;11.616;2023-06-22T01:45:33;11.65;;;5.30;;
4903;SDS011;2467;48.142;11.616;2023-06-22T01:46:06;9.77;;;4.90;;
4903;SDS011;2467;48.142;11.616;2023-06-22T01:46:39;7.72;;;4.90;;
4903;SDS011;2467;48.142;11.616;2023-06-22T01:47:11;7.10;;;5.07;;
4903;SDS011;2467;48.142;11.616;2023-06-22T01:47:45;5.95;;;4.15;;
4903;SDS011;2467;48.142;11.616;2023-06-22T01:48:18;8.15;;;5.65;;
4903;SDS011;2467;48.142;11.616;2023-06-22T01:48:50;6.20;;;4.25;;
4903;SDS011;2467;48.142;11.616;2023-06-22T01:49:23;7.13;;;4.97;;
4903;SDS011;2467;48.142;11.616;2023-06-22T01:49:55;6.50;;;4.18;;
4903;SDS011;2467;48.142;11.616;2023-06-22T01:50:28;7.00;;;4.50;;
4903;SDS011;2467;48.142;11.616;2023-06-22T01:51:01;7.50;;;4.95;;
4903;SDS011;2467;48.142;11.616;2023-06-22T01:51:33;9.13;;;4.78;;
4903;SDS011;2467;48.142;11.616;2023-06-22T01:52:05;4.80;;;4.35;;
4903;SDS011;2467;48.142;11.616;2023-06-22T01:52:39;6.38;;;5.43;;
4903;SDS011;2467;48.142;11.616;2023-06-22T01:53:10;11.48;;;8.20;;
4903;SDS011;2467;48.142;11.616;2023-06-22T01:53:42;7.47;;;6.80;;
4903;SDS011;2467;48.142;11.616;2023-06-22T01:54:14;9.55;;;5.55;;
4903;SDS011;2467;48.142;11.616;2023-06-22T01:54:47;7.78;;;6.57;;
4903;SDS011;2467;48.142;11.616;2023-06-22T01:55:19;7.90;;;4.82;;
4903;SDS011;2467;48.142;11.616;2023-06-22T01:55:51;6.53;;;5.60;;
4903;SDS011;2467;48.142;11.616;2023-06-22T01:56:24;11.15;;;4.93;;
4903;SDS011;2467;48.142;11.616;2023-06-22T01:56:57;7.45;;;4.75;;
4903;SDS011;2467;48.142;11.616;2023-06-22T01:57:29;7.15;;;4.63;;
4903;SDS011;2467;48.142;11.616;2023-06-22T01:58:02;5.55;;;5.03;;
4903;SDS011;2467;48.142;11.616;2023-06-22T01:58:35;7.57;;;5.60;;
4903;SDS011;2467;48.142;11.616;2023-06-22T01:59:15;6.53;;;4.50;;
4903;SDS011;2467;48.142;11.616;2023-06-22T01:59:57;6.20;;;5.55;;
4903;SDS011;2467;48.142;11.616;2023-06-22T02:00:32;7.05;;;5.90;;
4903;SDS011;2467;48.142;11.616;2023-06-22T02:01:09;5.53;;;4.95;;
4903;SDS011;2467;48.142;11.616;2023-06-22T02:01:43;6.00;;;4.03;;
4903;SDS011;2467;48.142;11.616;2023-06-22T02:02:23;6.07;;;4.32;;
4903;SDS011;2467;48.142;11.616;2023-06-22T02:03:02;6.15;;;4.72;;
4903;SDS011;2467;48.142;11.616;2023-06-22T02:03:40;5.13;;;4.63;;
4903;SDS011;2467;48.142;11.616;2023-06-22T02:04:19;6.55;;;4.85;;
4903;SDS011;2467;48.142;11.616;2023-06-22T02:04:56;4.75;;;4.30;;
4903;SDS011;2467;48.142;11.616;2023-06-22T02:05:31;5.03;;;4.43;;
4903;SDS011;2467;48.142;11.616;2023-06-22T02:06:10;4.65;;;4.25;;
4903;SDS011;2467;48.142;11.616;2023-06-22T02:06:47;5.75;;;4.43;;
4903;SDS011;2467;48.142;11.616;2023-06-22T02:07:28;8.88;;;5.15;;
4903;SDS011;2467;48.142;11.616;2023-06-22T02:08:06;5.82;;;5.22;;
4903;SDS011;2467;48.142;11.616;2023-06-22T02:08:41;10.32;;;7.95;;
4903;SDS011;2467;48.142;11.616;2023-06-22T02:09:18;11.30;;;10.20;;
4903;SDS011;2467;48.142;11.616;2023-06-22T02:09:54;17.13;;;15.32;;
4903;SDS011;2467;48.142;11.616;2023-06-22T02:10:27;23.17;;;20.38;;
4903;SDS011;2467;48.142;11.616;2023-06-22T02:11:01;12.45;;;11.20;;
4903;SDS011;2467;48.142;11.616;2023-06-22T02:11:35;17.90;;;16.05;;
4903;SDS011;2467;48.142;11.616;2023-06-22T02:12:09;14.27;;;12.88;;
4903;SDS011;2467;48.142;11.616;2023-06-22T02:12:44;11.13;;;10.07;;
4903;SDS011;2467;48.142;11.616;2023-06-22T02:13:17;10.10;;;9.10;;
4903;SDS011;2467;48.142;11.616;2023-06-22T02:13:50;11.07;;;8.52;;
4903;SDS011;2467;48.142;11.616;2023-06-22T02:14:24;10.02;;;5.88;;
4903;SDS011;2467;48.142;11.616;2023-06-22T02:14:57;6.85;;;5.15;;
4903;SDS011;2467;48.142;11.616;2023-06-22T02:15:32;7.28;;;5.10;;
4903;SDS011;2467;48.142;11.616;2023-06-22T02:16:04;9.18;;;6.07;;
4903;SDS011;2467;48.142;11.616;2023-06-22T02:16:40;8.48;;;5.03;;
4903;SDS011;2467;48.142;11.616;2023-06-22T02:17:12;7.88;;;4.90;;
4903;SDS011;2467;48.142;11.616;2023-06-22T02:17:44;8.77;;;6.43;;
4903;SDS011;2467;48.142;11.616;2023-06-22T02:18:17;11.13;;;6.05;;
4903;SDS011;2467;48.142;11.616;2023-06-22T02:18:57;7.57;;;5.20;;
4903;SDS011;2467;48.142;11.616;2023-06-22T02:19:35;6.72;;;5.18;;
4903;SDS011;2467;48.142;11.616;2023-06-22T02:20:12;6.22;;;4.93;;
4903;SDS011;2467;48.142;11.616;2023-06-22T02:20:44;10.20;;;5.93;;
4903;SDS011;2467;48.142;11.616;2023-06-22T02:21:17;6.35;;;5.75;;
4903;SDS011;2467;48.142;11.616;2023-06-22T02:21:50;11.38;;;5.07;;
4903;SDS011;2467;48.142;11.616;2023-06-22T02:22:22;10.07;;;5.20;;
4903;SDS011;2467;48.142;11.616;2023-06-22T02:22:54;5.75;;;5.25;;
4903;SDS011;2467;48.142;11.616;2023-06-22T02:23:27;9.77;;;5.20;;
4903;SDS011;2467;48.142;11.616;2023-06-22T02:23:59;8.80;;;5.88;;
4903;SDS011;2467;48.142;11.616;2023-06-22T02:24:31;5.85;;;5.13;;
4903;SDS011;2467;48.142;11.616;2023-06-22T02:25:04;6.72;;;4.80;;
4903;SDS011;2467;48.142;11.616;2023-06-22T02:25:37;9.10;;;5.97;;
4903;SDS011;2467;48.142;11.616;2023-06-22T02:26:09;6.25;;;5.65;;
4903;SDS011;2467;48.142;11.616;2023-06-22T02:26:42;7.25;;;5.10;;
4903;SDS011;2467;48.142;11.616;2023-06-22T02:27:16;8.13;;;5.60;;
4903;SDS011;2467;48.142;11.616;2023-06-22T02:27:48;5.28;;;4.63;;
4903;SDS011;2467;48.142;11.616;2023-06-22T02:28:20;8.20;;;5.40;;
4903;SDS011;2467;48.142;11.616;2023-06-22T02:28:53;8.63;;;5.70;;
4903;SDS011;2467;48.142;11.616;2023-06-22T02:29:26;6.05;;;4.93;;
4903;SDS011;2467;48.142;11.616;2023-06-22T02:30:01;7.30;;;5.40;;
4903;SDS011;2467;48.142;11.616;2023-06-22T02:30:34;6.57;;;5.53;;
4903;SDS011;2467;48.142;11.616;2023-06-22T02:31:09;10.95;;;5.30;;
4903;SDS011;2467;48.142;11.616;2023-06-22T02:31:48;7.82;;;5.55;;
4903;SDS011;2467;48.142;11.616;2023-06-22T02:32:21;8.55;;;5.35;;
4903;SDS011;2467;48.142;11.616;2023-06-22T02:32:53;6.50;;;4.97;;
4903;SDS011;2467;48.142;11.616;2023-06-22T02:33:29;5.95;;;5.35;;
4903;SDS011;2467;48.142;11.616;2023-06-22T02:34:03;5.68;;;5.13;;
4903;SDS011;2467;48.142;11.616;2023-06-22T02:34:34;5.22;;;4.57;;
4903;SDS011;2467;48.142;11.616;2023-06-22T02:35:08;5.43;;;4.93;;
4903;SDS011;2467;48.142;11.616;2023-06-22T02:35:41;6.32;;;5.03;;
4903;SDS011;2467;48.142;11.616;2023-06-22T02:36:16;7.22;;;4.68;;
4903;SDS011;2467;48.142;11.616;2023-06-22T02:36:55;8.13;;;5.43;;
4903;SDS011;2467;48.142;11.616;2023-06-22T02:37:33;6.60;;;4.82;;
4903;SDS011;2467;48.142;11.616;2023-06-22T02:38:06;5.95;;;5.15;;
4903;SDS011;2467;48.142;11.616;2023-06-22T02:38:40;7.43;;;5.20;;
4903;SDS011;2467;48.142;11.616;2023-06-22T02:39:19;8.05;;;5.60;;
4903;SDS011;2467;48.142;11.616;2023-06-22T02:39:53;5.90;;;5.32;;
4903;SDS011;2467;48.142;11.616;2023-06-22T02:40:26;7.35;;;5.40;;
4903;SDS011;2467;48.142;11.616;2023-06-22T02:40:58;8.15;;;5.75;;
4903;SDS011;2467;48.142;11.616;2023-06-22T02:41:30;6.80;;;6.10;;
4903;SDS011;2467;48.142;11.616;2023-06-22T02:42:03;7.00;;;6.28;;
4903;SDS011;2467;48.142;11.616;2023-06-22T02:42:35;7.22;;;4.75;;
4903;SDS011;2467;48.142;11.616;2023-06-22T02:43:08;6.90;;;4.72;;
4903;SDS011;2467;48.142;11.616;2023-06-22T02:43:40;6.15;;;5.50;;
4903;SDS011;2467;48.142;11.616;2023-06-22T02:44:12;7.75;;;6.95;;
4903;SDS011;2467;48.142;11.616;2023-06-22T02:45:04;7.32;;;5.93;;
4903;SDS011;2467;48.142;11.616;2023-06-22T02:45:38;18.98;;;16.40;;
4903;SDS011;2467;48.142;11.616;2023-06-22T02:46:09;9.73;;;7.38;;
4903;SDS011;2467;48.142;11.616;2023-06-22T02:46:41;12.23;;;10.98;;
4903;SDS011;2467;48.142;11.616;2023-06-22T02:47:15;16.05;;;14.13;;
4903;SDS011;2467;48.142;11.616;2023-06-22T02:47:47;9.88;;;8.88;;
4903;SDS011;2467;48.142;11.616;2023-06-22T02:48:20;9.73;;;8.68;;
4903;SDS011;2467;48.142;11.616;2023-06-22T02:48:52;8.40;;;6.72;;
4903;SDS011;2467;48.142;11.616;2023-06-22T02:49:24;8.57;;;5.90;;
4903;SDS011;2467;48.142;11.616;2023-06-22T02:49:56;5.90;;;5.38;;
4903;SDS011;2467;48.142;11.616;2023-06-22T02:50:29;6.82;;;5.63;;
4903;SDS011;2467;48.142;11.616;2023-06-22T02:51:01;6.57;;;5.55;;
4903;SDS011;2467;48.142;11.616;2023-06-22T02:51:33;10.27;;;6.95;;
4903;SDS011;2467;48.142;11.616;2023-06-22T02:52:06;5.20;;;4.70;;
4903;SDS011;2467;48.142;11.616;2023-06-22T02:52:38;6.13;;;5.20;;
4903;SDS011;2467;48.142;11.616;2023-06-22T02:53:11;6.32;;;5.72;;
4903;SDS011;2467;48.142;11.616;2023-06-22T02:53:43;5.95;;;5.45;;
4903;SDS011;2467;48.142;11.616;2023-06-22T02:54:16;6.45;;;5.38;;
4903;SDS011;2467;48.142;11.616;2023-06-22T02:54:49;5.53;;;4.50;;
4903;SDS011;2467;48.142;11.616;2023-06-22T02:55:21;6.95;;;5.50;;
4903;SDS011;2467;48.142;11.616;2023-06-22T02:55:55;5.88;;;5.00;;
4903;SDS011;2467;48.142;11.616;2023-06-22T02:56:28;5.00;;;4.50;;
4903;SDS011;2467;48.142;11.616;2023-06-22T02:57:01;8.02;;;5.75;;
4903;SDS011;2467;48.142;11.616;2023-06-22T02:57:34;8.60;;;6.25;;
4903;SDS011;2467;48.142;11.616;2023-06-22T02:58:06;6.05;;;5.40;;
4903;SDS011;2467;48.142;11.616;2023-06-22T02:58:38;5.85;;;5.25;;
4903;SDS011;2467;48.142;11.616;2023-06-22T02:59:10;5.60;;;5.10;;
4903;SDS011;2467;48.142;11.616;2023-06-22T02:59:42;8.95;;;5.68;;
4903;SDS011;2467;48.142;11.616;2023-06-22T03:00:17;7.90;;;5.68;;
4903;SDS011;2467;48.142;11.616;2023-06-22T03:00:50;5.82;;;5.32;;
4903;SDS011;2467;48.142;11.616;2023-06-22T03:01:24;6.03;;;4.93;;
4903;SDS011;2467;48.142;11.616;2023-06-22T03:01:59;7.55;;;5.53;;
4903;SDS011;2467;48.142;11.616;2023-06-22T03:02:31;6.72;;;6.03;;
4903;SDS011;2467;48.142;11.616;2023-06-22T03:03:03;9.05;;;5.90;;
4903;SDS011;2467;48.142;11.616;2023-06-22T03:03:36;7.65;;;6.25;;
4903;SDS011;2467;48.142;11.616;2023-06-22T03:04:09;10.73;;;5.60;;
4903;SDS011;2467;48.142;11.616;2023-06-22T03:04:41;6.35;;;5.63;;
4903;SDS011;2467;48.142;11.616;2023-06-22T03:05:14;6.43;;;5.30;;
4903;SDS011;2467;48.142;11.616;2023-06-22T03:05:49;6.82;;;6.00;;
4903;SDS011;2467;48.142;11.616;2023-06-22T03:06:24;7.28;;;5.80;;
4903;SDS011;2467;48.142;11.616;2023-06-22T03:06:59;7.90;;;5.68;;
4903;SDS011;2467;48.142;11.616;2023-06-22T03:07:32;8.68;;;6.00;;
4903;SDS011;2467;48.142;11.616;2023-06-22T03:08:04;5.95;;;5.30;;
4903;SDS011;2467;48.142;11.616;2023-06-22T03:08:37;5.65;;;4.95;;
4903;SDS011;2467;48.142;11.616;2023-06-22T03:09:09;6.60;;;5.60;;
4903;SDS011;2467;48.142;11.616;2023-06-22T03:09:42;9.40;;;6.72;;
4903;SDS011;2467;48.142;11.616;2023-06-22T03:10:15;8.00;;;5.78;;
4903;SDS011;2467;48.142;11.616;2023-06-22T03:10:47;5.85;;;5.20;;
4903;SDS011;2467;48.142;11.616;2023-06-22T03:11:19;6.30;;;5.78;;
4903;SDS011;2467;48.142;11.616;2023-06-22T03:11:51;7.18;;;6.50;;
4903;SDS011;2467;48.142;11.616;2023-06-22T03:12:23;7.35;;;6.65;;
4903;SDS011;2467;48.142;11.616;2023-06-22T03:12:55;7.20;;;6.50;;
4903;SDS011;2467;48.142;11.616;2023-06-22T03:13:28;7.45;;;6.50;;
4903;SDS011;2467;48.142;11.616;2023-06-22T03:14:00;7.75;;;6.18;;
4903;SDS011;2467;48.142;11.616;2023-06-22T03:14:32;7.95;;;6.40;;
4903;SDS011;2467;48.142;11.616;2023-06-22T03:15:05;6.43;;;5.75;;
4903;SDS011;2467;48.142;11.616;2023-06-22T03:15:40;9.38;;;5.70;;
4903;SDS011;2467;48.142;11.616;2023-06-22T03:16:11;6.85;;;5.80;;
4903;SDS011;2467;48.142;11.616;2023-06-22T03:16:44;7.45;;;6.63;;
4903;SDS011;2467;48.142;11.616;2023-06-22T03:17:17;8.05;;;5.95;;
4903;SDS011;2467;48.142;11.616;2023-06-22T03:17:50;7.57;;;6.45;;
4903;SDS011;2467;48.142;11.616;2023-06-22T03:18:22;6.70;;;5.93;;
4903;SDS011;2467;48.142;11.616;2023-06-22T03:18:54;8.00;;;6.00;;
4903;SDS011;2467;48.142;11.616;2023-06-22T03:19:27;7.95;;;5.90;;
4903;SDS011;2467;48.142;11.616;2023-06-22T03:20:00;7.03;;;6.00;;
4903;SDS011;2467;48.142;11.616;2023-06-22T03:20:32;7.35;;;6.35;;
4903;SDS011;2467;48.142;11.616;2023-06-22T03:21:05;6.32;;;5.68;;
4903;SDS011;2467;48.142;11.616;2023-06-22T03:21:37;6.30;;;5.70;;
4903;SDS011;2467;48.142;11.616;2023-06-22T03:22:10;13.18;;;6.70;;
4903;SDS011;2467;48.142;11.616;2023-06-22T03:22:44;7.07;;;5.90;;
4903;SDS011;2467;48.142;11.616;2023-06-22T03:23:16;7.57;;;6.05;;
4903;SDS011;2467;48.142;11.616;2023-06-22T03:23:48;8.38;;;6.22;;
4903;SDS011;2467;48.142;11.616;2023-06-22T03:24:21;6.65;;;5.95;;
4903;SDS011;2467;48.142;11.616;2023-06-22T03:24:53;7.28;;;6.68;;
4903;SDS011;2467;48.142;11.616;2023-06-22T03:25:25;6.85;;;6.10;;
4903;SDS011;2467;48.142;11.616;2023-06-22T03:25:58;7.75;;;5.53;;
4903;SDS011;2467;48.142;11.616;2023-06-22T03:26:30;8.85;;;6.95;;
4903;SDS011;2467;48.142;11.616;2023-06-22T03:27:02;7.05;;;6.22;;
4903;SDS011;2467;48.142;11.616;2023-06-22T03:27:36;9.73;;;5.53;;
4903;SDS011;2467;48.142;11.616;2023-06-22T03:28:08;7.85;;;6.75;;
4903;SDS011;2467;48.142;11.616;2023-06-22T03:28:40;7.40;;;6.53;;